sensor_id;sensor_type;location;lat;lon;timestamp;P1;durP1;ratioP1;P2;durP2;ratioP2
17566;SDS011;8901;52.088;5.084;2023-07-02T00:02:01;10.80;;;6.37;;
17566;SDS011;8901;52.088;5.084;2023-07-02T00:04:30;14.57;;;7.40;;
17566;SDS011;8901;52.088;5.084;2023-07-02T00:07:00;10.33;;;6.97;;
17566;SDS011;8901;52.088;5.084;2023-07-02T00:09:33;12.40;;;6.80;;
17566;SDS011;8901;52.088;5.084;2023-07-02T00:12:03;14.13;;;6.83;;
17566;SDS011;8901;52.088;5.084;2023-07-02T00:17:20;11.43;;;8.50;;
17566;SDS011;8901;52.088;5.084;2023-07-02T00:19:52;11.70;;;7.93;;
17566;SDS011;8901;52.088;5.084;2023-07-02T00:22:22;14.52;;;8.68;;
17566;SDS011;8901;52.088;5.084;2023-07-02T00:24:52;11.73;;;9.77;;
17566;SDS011;8901;52.088;5.084;2023-07-02T00:27:20;10.20;;;8.67;;
17566;SDS011;8901;52.088;5.084;2023-07-02T00:29:48;10.13;;;8.97;;
17566;SDS011;8901;52.088;5.084;2023-07-02T00:32:15;13.68;;;8.95;;
17566;SDS011;8901;52.088;5.084;2023-07-02T00:34:50;13.53;;;9.67;;
17566;SDS011;8901;52.088;5.084;2023-07-02T00:37:19;17.48;;;11.45;;
17566;SDS011;8901;52.088;5.084;2023-07-02T00:42:41;14.60;;;9.60;;
17566;SDS011;8901;52.088;5.084;2023-07-02T00:48:00;16.63;;;10.40;;
17566;SDS011;8901;52.088;5.084;2023-07-02T00:53:19;16.93;;;11.60;;
17566;SDS011;8901;52.088;5.084;2023-07-02T00:55:46;14.40;;;10.20;;
17566;SDS011;8901;52.088;5.084;2023-07-02T01:01:05;13.50;;;9.97;;
17566;SDS011;8901;52.088;5.084;2023-07-02T01:06:44;17.07;;;9.23;;
17566;SDS011;8901;52.088;5.084;2023-07-02T01:11:56;12.37;;;9.53;;
17566;SDS011;8901;52.088;5.084;2023-07-02T01:17:27;16.03;;;9.90;;
17566;SDS011;8901;52.088;5.084;2023-07-02T01:22:51;14.63;;;10.23;;
17566;SDS011;8901;52.088;5.084;2023-07-02T01:42:14;14.13;;;10.43;;
17566;SDS011;8901;52.088;5.084;2023-07-02T01:47:22;12.27;;;10.35;;
17566;SDS011;8901;52.088;5.084;2023-07-02T01:49:52;14.15;;;10.40;;
17566;SDS011;8901;52.088;5.084;2023-07-02T01:52:19;13.73;;;10.88;;
17566;SDS011;8901;52.088;5.084;2023-07-02T01:54:46;13.40;;;9.98;;
17566;SDS011;8901;52.088;5.084;2023-07-02T01:57:15;15.63;;;10.70;;
17566;SDS011;8901;52.088;5.084;2023-07-02T01:59:43;17.40;;;11.18;;
17566;SDS011;8901;52.088;5.084;2023-07-02T02:02:12;15.85;;;10.65;;
17566;SDS011;8901;52.088;5.084;2023-07-02T02:04:39;14.35;;;11.10;;
17566;SDS011;8901;52.088;5.084;2023-07-02T02:07:07;15.38;;;11.02;;
17566;SDS011;8901;52.088;5.084;2023-07-02T02:09:34;18.30;;;11.77;;
17566;SDS011;8901;52.088;5.084;2023-07-02T02:12:01;16.38;;;11.30;;
17566;SDS011;8901;52.088;5.084;2023-07-02T02:14:30;16.02;;;11.20;;
17566;SDS011;8901;52.088;5.084;2023-07-02T02:16:57;14.23;;;10.00;;
17566;SDS011;8901;52.088;5.084;2023-07-02T02:19:25;16.85;;;11.23;;
17566;SDS011;8901;52.088;5.084;2023-07-02T02:21:52;14.80;;;10.80;;
17566;SDS011;8901;52.088;5.084;2023-07-02T02:24:19;15.20;;;10.57;;
17566;SDS011;8901;52.088;5.084;2023-07-02T02:26:46;13.15;;;11.10;;
17566;SDS011;8901;52.088;5.084;2023-07-02T02:29:14;17.77;;;10.30;;
17566;SDS011;8901;52.088;5.084;2023-07-02T02:31:43;12.27;;;10.35;;
17566;SDS011;8901;52.088;5.084;2023-07-02T02:34:10;12.43;;;10.43;;
17566;SDS011;8901;52.088;5.084;2023-07-02T02:36:38;15.93;;;10.48;;
17566;SDS011;8901;52.088;5.084;2023-07-02T02:39:05;13.00;;;10.50;;
17566;SDS011;8901;52.088;5.084;2023-07-02T02:41:32;17.05;;;11.02;;
17566;SDS011;8901;52.088;5.084;2023-07-02T02:43:59;20.60;;;11.75;;
17566;SDS011;8901;52.088;5.084;2023-07-02T02:46:27;14.80;;;11.93;;
17566;SDS011;8901;52.088;5.084;2023-07-02T02:48:55;14.80;;;11.52;;
17566;SDS011;8901;52.088;5.084;2023-07-02T02:51:23;13.52;;;11.60;;
17566;SDS011;8901;52.088;5.084;2023-07-02T02:54:07;14.35;;;10.55;;
17566;SDS011;8901;52.088;5.084;2023-07-02T02:56:34;13.80;;;10.93;;
17566;SDS011;8901;52.088;5.084;2023-07-02T02:59:01;14.20;;;11.02;;
17566;SDS011;8901;52.088;5.084;2023-07-02T03:01:29;16.20;;;12.80;;
17566;SDS011;8901;52.088;5.084;2023-07-02T03:03:59;17.83;;;11.15;;
17566;SDS011;8901;52.088;5.084;2023-07-02T03:06:26;14.75;;;11.02;;
17566;SDS011;8901;52.088;5.084;2023-07-02T03:08:53;12.45;;;10.55;;
17566;SDS011;8901;52.088;5.084;2023-07-02T03:11:20;14.15;;;11.27;;
17566;SDS011;8901;52.088;5.084;2023-07-02T03:13:50;15.32;;;11.75;;
17566;SDS011;8901;52.088;5.084;2023-07-02T03:16:17;16.48;;;12.85;;
17566;SDS011;8901;52.088;5.084;2023-07-02T03:18:46;19.33;;;12.25;;
17566;SDS011;8901;52.088;5.084;2023-07-02T03:21:15;16.40;;;11.90;;
17566;SDS011;8901;52.088;5.084;2023-07-02T03:23:42;16.10;;;12.20;;
17566;SDS011;8901;52.088;5.084;2023-07-02T03:26:10;15.25;;;12.38;;
17566;SDS011;8901;52.088;5.084;2023-07-02T03:31:31;15.45;;;12.38;;
17566;SDS011;8901;52.088;5.084;2023-07-02T03:33:59;18.10;;;13.68;;
17566;SDS011;8901;52.088;5.084;2023-07-02T03:36:28;20.70;;;12.90;;
17566;SDS011;8901;52.088;5.084;2023-07-02T03:38:55;16.13;;;12.40;;
17566;SDS011;8901;52.088;5.084;2023-07-02T03:41:23;14.88;;;12.38;;
17566;SDS011;8901;52.088;5.084;2023-07-02T03:43:50;20.17;;;13.48;;
17566;SDS011;8901;52.088;5.084;2023-07-02T03:46:17;16.27;;;14.57;;
17566;SDS011;8901;52.088;5.084;2023-07-02T03:48:45;19.33;;;13.45;;
17566;SDS011;8901;52.088;5.084;2023-07-02T03:51:12;15.82;;;11.88;;
17566;SDS011;8901;52.088;5.084;2023-07-02T03:53:41;16.80;;;13.13;;
17566;SDS011;8901;52.088;5.084;2023-07-02T03:56:09;15.80;;;12.88;;
17566;SDS011;8901;52.088;5.084;2023-07-02T03:58:36;17.17;;;13.30;;
17566;SDS011;8901;52.088;5.084;2023-07-02T04:01:03;16.50;;;13.45;;
17566;SDS011;8901;52.088;5.084;2023-07-02T04:03:31;18.23;;;13.07;;
17566;SDS011;8901;52.088;5.084;2023-07-02T04:05:58;14.90;;;13.02;;
17566;SDS011;8901;52.088;5.084;2023-07-02T04:08:25;13.85;;;12.13;;
17566;SDS011;8901;52.088;5.084;2023-07-02T04:10:55;17.40;;;13.63;;
17566;SDS011;8901;52.088;5.084;2023-07-02T04:13:22;16.63;;;13.77;;
17566;SDS011;8901;52.088;5.084;2023-07-02T04:15:50;15.63;;;14.02;;
17566;SDS011;8901;52.088;5.084;2023-07-02T04:18:17;17.48;;;14.02;;
17566;SDS011;8901;52.088;5.084;2023-07-02T04:20:44;17.83;;;13.73;;
17566;SDS011;8901;52.088;5.084;2023-07-02T04:23:11;18.83;;;12.32;;
17566;SDS011;8901;52.088;5.084;2023-07-02T04:25:39;20.25;;;13.23;;
17566;SDS011;8901;52.088;5.084;2023-07-02T04:28:07;20.65;;;15.90;;
17566;SDS011;8901;52.088;5.084;2023-07-02T04:30:34;18.98;;;13.80;;
17566;SDS011;8901;52.088;5.084;2023-07-02T04:33:02;19.20;;;14.60;;
17566;SDS011;8901;52.088;5.084;2023-07-02T04:35:30;17.15;;;13.63;;
17566;SDS011;8901;52.088;5.084;2023-07-02T04:37:57;22.48;;;14.75;;
17566;SDS011;8901;52.088;5.084;2023-07-02T04:40:25;19.00;;;13.27;;
17566;SDS011;8901;52.088;5.084;2023-07-02T04:42:53;16.67;;;13.93;;
17566;SDS011;8901;52.088;5.084;2023-07-02T04:45:25;17.33;;;14.07;;
17566;SDS011;8901;52.088;5.084;2023-07-02T04:47:57;16.17;;;14.30;;
17566;SDS011;8901;52.088;5.084;2023-07-02T04:50:26;16.77;;;13.38;;
17566;SDS011;8901;52.088;5.084;2023-07-02T04:52:53;19.13;;;13.50;;
17566;SDS011;8901;52.088;5.084;2023-07-02T04:55:20;20.90;;;13.77;;
17566;SDS011;8901;52.088;5.084;2023-07-02T04:57:48;19.70;;;13.75;;
17566;SDS011;8901;52.088;5.084;2023-07-02T05:00:15;15.70;;;13.68;;
17566;SDS011;8901;52.088;5.084;2023-07-02T05:02:44;21.98;;;14.60;;
17566;SDS011;8901;52.088;5.084;2023-07-02T05:05:11;19.58;;;14.10;;
17566;SDS011;8901;52.088;5.084;2023-07-02T05:07:40;19.70;;;14.48;;
17566;SDS011;8901;52.088;5.084;2023-07-02T05:10:07;19.13;;;14.43;;
17566;SDS011;8901;52.088;5.084;2023-07-02T05:12:35;17.23;;;13.43;;
17566;SDS011;8901;52.088;5.084;2023-07-02T05:15:02;16.77;;;13.73;;
17566;SDS011;8901;52.088;5.084;2023-07-02T05:17:29;18.38;;;13.85;;
17566;SDS011;8901;52.088;5.084;2023-07-02T05:20:01;17.77;;;14.00;;
17566;SDS011;8901;52.088;5.084;2023-07-02T05:22:28;18.15;;;13.77;;
17566;SDS011;8901;52.088;5.084;2023-07-02T05:24:55;22.00;;;14.60;;
17566;SDS011;8901;52.088;5.084;2023-07-02T05:27:23;21.98;;;13.95;;
17566;SDS011;8901;52.088;5.084;2023-07-02T05:29:50;19.37;;;14.37;;
17566;SDS011;8901;52.088;5.084;2023-07-02T05:32:17;19.42;;;14.10;;
17566;SDS011;8901;52.088;5.084;2023-07-02T05:34:44;17.77;;;14.60;;
17566;SDS011;8901;52.088;5.084;2023-07-02T05:37:13;16.85;;;12.82;;
17566;SDS011;8901;52.088;5.084;2023-07-02T05:39:40;19.50;;;14.27;;
17566;SDS011;8901;52.088;5.084;2023-07-02T05:42:07;19.33;;;14.10;;
17566;SDS011;8901;52.088;5.084;2023-07-02T05:44:35;16.87;;;13.77;;
17566;SDS011;8901;52.088;5.084;2023-07-02T05:47:04;17.10;;;13.37;;
17566;SDS011;8901;52.088;5.084;2023-07-02T05:49:32;16.70;;;13.23;;
17566;SDS011;8901;52.088;5.084;2023-07-02T05:51:59;17.13;;;12.70;;
17566;SDS011;8901;52.088;5.084;2023-07-02T05:54:27;17.38;;;13.18;;
17566;SDS011;8901;52.088;5.084;2023-07-02T05:56:55;17.05;;;15.13;;
17566;SDS011;8901;52.088;5.084;2023-07-02T05:59:22;17.77;;;14.93;;
17566;SDS011;8901;52.088;5.084;2023-07-02T06:01:49;14.35;;;12.85;;
17566;SDS011;8901;52.088;5.084;2023-07-02T06:04:16;17.02;;;13.05;;
17566;SDS011;8901;52.088;5.084;2023-07-02T06:06:44;15.67;;;12.23;;
17566;SDS011;8901;52.088;5.084;2023-07-02T06:09:11;19.15;;;13.32;;
17566;SDS011;8901;52.088;5.084;2023-07-02T06:11:39;18.83;;;14.30;;
17566;SDS011;8901;52.088;5.084;2023-07-02T06:14:07;17.17;;;13.80;;
17566;SDS011;8901;52.088;5.084;2023-07-02T06:16:34;17.40;;;14.00;;
17566;SDS011;8901;52.088;5.084;2023-07-02T06:19:01;17.03;;;12.63;;
17566;SDS011;8901;52.088;5.084;2023-07-02T06:21:28;18.20;;;12.52;;
17566;SDS011;8901;52.088;5.084;2023-07-02T06:23:56;17.37;;;11.83;;
17566;SDS011;8901;52.088;5.084;2023-07-02T06:26:24;18.92;;;14.02;;
17566;SDS011;8901;52.088;5.084;2023-07-02T06:28:53;21.42;;;13.90;;
17566;SDS011;8901;52.088;5.084;2023-07-02T06:31:20;17.87;;;12.17;;
17566;SDS011;8901;52.088;5.084;2023-07-02T06:33:47;17.50;;;14.20;;
17566;SDS011;8901;52.088;5.084;2023-07-02T06:36:14;17.53;;;11.77;;
17566;SDS011;8901;52.088;5.084;2023-07-02T06:38:43;15.87;;;12.00;;
17566;SDS011;8901;52.088;5.084;2023-07-02T06:41:10;17.88;;;13.30;;
17566;SDS011;8901;52.088;5.084;2023-07-02T06:43:37;16.13;;;13.90;;
17566;SDS011;8901;52.088;5.084;2023-07-02T06:46:06;14.90;;;12.43;;
17566;SDS011;8901;52.088;5.084;2023-07-02T06:48:34;17.37;;;12.47;;
17566;SDS011;8901;52.088;5.084;2023-07-02T06:51:01;15.37;;;10.93;;
17566;SDS011;8901;52.088;5.084;2023-07-02T06:53:28;18.97;;;12.97;;
17566;SDS011;8901;52.088;5.084;2023-07-02T06:55:55;16.33;;;12.03;;
17566;SDS011;8901;52.088;5.084;2023-07-02T06:58:24;18.37;;;13.93;;
17566;SDS011;8901;52.088;5.084;2023-07-02T07:00:51;14.90;;;12.40;;
17566;SDS011;8901;52.088;5.084;2023-07-02T07:03:20;15.70;;;11.90;;
17566;SDS011;8901;52.088;5.084;2023-07-02T07:05:47;13.97;;;11.97;;
17566;SDS011;8901;52.088;5.084;2023-07-02T07:08:14;17.35;;;12.35;;
17566;SDS011;8901;52.088;5.084;2023-07-02T07:10:41;16.42;;;13.20;;
17566;SDS011;8901;52.088;5.084;2023-07-02T07:13:10;13.85;;;12.43;;
17566;SDS011;8901;52.088;5.084;2023-07-02T07:15:37;14.25;;;12.68;;
17566;SDS011;8901;52.088;5.084;2023-07-02T07:18:05;15.10;;;12.93;;
17566;SDS011;8901;52.088;5.084;2023-07-02T07:20:33;18.37;;;14.80;;
17566;SDS011;8901;52.088;5.084;2023-07-02T07:23:01;16.83;;;14.10;;
17566;SDS011;8901;52.088;5.084;2023-07-02T07:25:29;16.03;;;14.17;;
17566;SDS011;8901;52.088;5.084;2023-07-02T07:27:57;16.37;;;14.73;;
17566;SDS011;8901;52.088;5.084;2023-07-02T07:30:24;16.77;;;15.00;;
17566;SDS011;8901;52.088;5.084;2023-07-02T07:32:52;14.17;;;12.10;;
17566;SDS011;8901;52.088;5.084;2023-07-02T07:35:20;17.67;;;15.57;;
17566;SDS011;8901;52.088;5.084;2023-07-02T07:37:49;15.70;;;14.30;;
17566;SDS011;8901;52.088;5.084;2023-07-02T07:40:16;15.37;;;13.90;;
17566;SDS011;8901;52.088;5.084;2023-07-02T07:42:43;17.60;;;15.10;;
17566;SDS011;8901;52.088;5.084;2023-07-02T07:45:11;23.57;;;14.40;;
17566;SDS011;8901;52.088;5.084;2023-07-02T07:47:38;14.93;;;13.35;;
17566;SDS011;8901;52.088;5.084;2023-07-02T07:50:06;16.77;;;14.57;;
17566;SDS011;8901;52.088;5.084;2023-07-02T07:52:36;18.00;;;15.27;;
17566;SDS011;8901;52.088;5.084;2023-07-02T07:55:05;18.20;;;16.37;;
17566;SDS011;8901;52.088;5.084;2023-07-02T07:57:33;18.47;;;16.47;;
17566;SDS011;8901;52.088;5.084;2023-07-02T08:00:00;18.03;;;16.10;;
17566;SDS011;8901;52.088;5.084;2023-07-02T08:02:29;17.10;;;15.30;;
17566;SDS011;8901;52.088;5.084;2023-07-02T08:04:56;18.23;;;16.42;;
17566;SDS011;8901;52.088;5.084;2023-07-02T08:07:24;17.47;;;15.60;;
17566;SDS011;8901;52.088;5.084;2023-07-02T08:09:51;19.00;;;17.30;;
17566;SDS011;8901;52.088;5.084;2023-07-02T08:12:20;18.67;;;16.87;;
17566;SDS011;8901;52.088;5.084;2023-07-02T08:14:47;18.40;;;15.63;;
17566;SDS011;8901;52.088;5.084;2023-07-02T08:17:14;18.15;;;16.42;;
17566;SDS011;8901;52.088;5.084;2023-07-02T08:19:41;18.65;;;17.05;;
17566;SDS011;8901;52.088;5.084;2023-07-02T08:22:09;15.87;;;14.43;;
17566;SDS011;8901;52.088;5.084;2023-07-02T08:24:36;17.52;;;15.88;;
17566;SDS011;8901;52.088;5.084;2023-07-02T08:27:04;18.30;;;16.70;;
17566;SDS011;8901;52.088;5.084;2023-07-02T08:29:32;19.38;;;17.58;;
17566;SDS011;8901;52.088;5.084;2023-07-02T08:32:00;20.08;;;18.27;;
17566;SDS011;8901;52.088;5.084;2023-07-02T08:34:27;18.48;;;16.73;;
17566;SDS011;8901;52.088;5.084;2023-07-02T08:36:54;18.65;;;16.90;;
17566;SDS011;8901;52.088;5.084;2023-07-02T08:39:21;18.30;;;16.50;;
17566;SDS011;8901;52.088;5.084;2023-07-02T08:41:49;18.05;;;16.25;;
17566;SDS011;8901;52.088;5.084;2023-07-02T08:44:20;20.00;;;16.63;;
17566;SDS011;8901;52.088;5.084;2023-07-02T08:46:49;17.17;;;15.63;;
17566;SDS011;8901;52.088;5.084;2023-07-02T08:49:18;16.70;;;15.40;;
17566;SDS011;8901;52.088;5.084;2023-07-02T08:51:49;19.00;;;17.40;;
17566;SDS011;8901;52.088;5.084;2023-07-02T08:54:20;15.40;;;13.98;;
17566;SDS011;8901;52.088;5.084;2023-07-02T08:56:51;15.40;;;14.13;;
17566;SDS011;8901;52.088;5.084;2023-07-02T08:59:27;18.90;;;17.30;;
17566;SDS011;8901;52.088;5.084;2023-07-02T09:01:56;17.00;;;15.60;;
17566;SDS011;8901;52.088;5.084;2023-07-02T09:04:26;15.80;;;14.30;;
17566;SDS011;8901;52.088;5.084;2023-07-02T09:07:03;19.58;;;17.98;;
17566;SDS011;8901;52.088;5.084;2023-07-02T09:09:31;19.30;;;17.88;;
17566;SDS011;8901;52.088;5.084;2023-07-02T09:11:58;18.33;;;16.83;;
17566;SDS011;8901;52.088;5.084;2023-07-02T09:14:26;20.23;;;18.60;;
17566;SDS011;8901;52.088;5.084;2023-07-02T09:17:02;20.80;;;19.38;;
17566;SDS011;8901;52.088;5.084;2023-07-02T09:19:30;21.23;;;19.52;;
17566;SDS011;8901;52.088;5.084;2023-07-02T09:21:57;19.30;;;18.00;;
17566;SDS011;8901;52.088;5.084;2023-07-02T09:24:26;20.20;;;18.60;;
17566;SDS011;8901;52.088;5.084;2023-07-02T09:26:54;16.87;;;15.47;;
17566;SDS011;8901;52.088;5.084;2023-07-02T09:29:22;17.83;;;16.55;;
17566;SDS011;8901;52.088;5.084;2023-07-02T09:31:51;20.65;;;19.10;;
17566;SDS011;8901;52.088;5.084;2023-07-02T09:34:25;17.85;;;16.45;;
17566;SDS011;8901;52.088;5.084;2023-07-02T09:36:54;16.45;;;15.45;;
17566;SDS011;8901;52.088;5.084;2023-07-02T09:39:25;19.95;;;18.48;;
17566;SDS011;8901;52.088;5.084;2023-07-02T09:41:57;19.55;;;18.13;;
17566;SDS011;8901;52.088;5.084;2023-07-02T09:44:26;20.97;;;19.37;;
17566;SDS011;8901;52.088;5.084;2023-07-02T09:47:01;19.77;;;18.25;;
17566;SDS011;8901;52.088;5.084;2023-07-02T09:49:33;18.88;;;17.35;;
17566;SDS011;8901;52.088;5.084;2023-07-02T09:52:03;18.63;;;17.13;;
17566;SDS011;8901;52.088;5.084;2023-07-02T09:54:32;15.50;;;14.40;;
17566;SDS011;8901;52.088;5.084;2023-07-02T09:57:01;18.70;;;17.30;;
17566;SDS011;8901;52.088;5.084;2023-07-02T09:59:31;19.17;;;17.77;;
17566;SDS011;8901;52.088;5.084;2023-07-02T10:01:58;20.70;;;19.20;;
17566;SDS011;8901;52.088;5.084;2023-07-02T10:04:26;19.38;;;17.60;;
17566;SDS011;8901;52.088;5.084;2023-07-02T10:06:57;20.10;;;18.80;;
17566;SDS011;8901;52.088;5.084;2023-07-02T10:09:34;20.92;;;19.35;;
17566;SDS011;8901;52.088;5.084;2023-07-02T10:12:14;21.23;;;19.75;;
17566;SDS011;8901;52.088;5.084;2023-07-02T10:14:43;20.13;;;18.40;;
17566;SDS011;8901;52.088;5.084;2023-07-02T10:17:22;21.90;;;20.15;;
17566;SDS011;8901;52.088;5.084;2023-07-02T10:19:50;18.75;;;17.50;;
17566;SDS011;8901;52.088;5.084;2023-07-02T10:22:19;21.45;;;20.05;;
17566;SDS011;8901;52.088;5.084;2023-07-02T10:24:51;21.65;;;19.95;;
17566;SDS011;8901;52.088;5.084;2023-07-02T10:27:33;21.00;;;19.60;;
17566;SDS011;8901;52.088;5.084;2023-07-02T10:30:02;20.90;;;19.40;;
17566;SDS011;8901;52.088;5.084;2023-07-02T10:32:30;21.80;;;20.33;;
17566;SDS011;8901;52.088;5.084;2023-07-02T10:35:00;20.97;;;19.37;;
17566;SDS011;8901;52.088;5.084;2023-07-02T10:37:38;20.60;;;19.00;;
17566;SDS011;8901;52.088;5.084;2023-07-02T10:40:07;20.23;;;18.58;;
17566;SDS011;8901;52.088;5.084;2023-07-02T10:42:46;20.15;;;18.73;;
17566;SDS011;8901;52.088;5.084;2023-07-02T10:45:15;20.02;;;18.52;;
17566;SDS011;8901;52.088;5.084;2023-07-02T10:47:43;20.55;;;19.05;;
17566;SDS011;8901;52.088;5.084;2023-07-02T10:50:15;19.98;;;18.50;;
17566;SDS011;8901;52.088;5.084;2023-07-02T10:52:46;20.48;;;18.98;;
17566;SDS011;8901;52.088;5.084;2023-07-02T10:55:19;19.40;;;18.08;;
17566;SDS011;8901;52.088;5.084;2023-07-02T10:57:49;20.40;;;18.88;;
17566;SDS011;8901;52.088;5.084;2023-07-02T11:00:18;21.00;;;19.03;;
17566;SDS011;8901;52.088;5.084;2023-07-02T11:02:46;19.52;;;18.00;;
17566;SDS011;8901;52.088;5.084;2023-07-02T11:05:17;20.67;;;19.05;;
17566;SDS011;8901;52.088;5.084;2023-07-02T11:07:48;19.95;;;18.45;;
17566;SDS011;8901;52.088;5.084;2023-07-02T11:10:22;19.98;;;18.55;;
17566;SDS011;8901;52.088;5.084;2023-07-02T11:12:53;19.83;;;18.38;;
17566;SDS011;8901;52.088;5.084;2023-07-02T11:15:23;20.17;;;18.75;;
17566;SDS011;8901;52.088;5.084;2023-07-02T11:17:52;20.13;;;18.77;;
17566;SDS011;8901;52.088;5.084;2023-07-02T11:20:22;20.27;;;18.75;;
17566;SDS011;8901;52.088;5.084;2023-07-02T11:23:04;21.17;;;19.67;;
17566;SDS011;8901;52.088;5.084;2023-07-02T11:25:33;20.58;;;18.95;;
17566;SDS011;8901;52.088;5.084;2023-07-02T11:28:01;21.10;;;19.50;;
17566;SDS011;8901;52.088;5.084;2023-07-02T11:30:44;20.02;;;18.63;;
17566;SDS011;8901;52.088;5.084;2023-07-02T11:33:13;21.42;;;19.92;;
17566;SDS011;8901;52.088;5.084;2023-07-02T11:35:42;21.67;;;20.17;;
17566;SDS011;8901;52.088;5.084;2023-07-02T11:38:22;21.42;;;19.92;;
17566;SDS011;8901;52.088;5.084;2023-07-02T11:40:52;19.92;;;18.52;;
17566;SDS011;8901;52.088;5.084;2023-07-02T11:43:24;21.25;;;19.42;;
17566;SDS011;8901;52.088;5.084;2023-07-02T11:45:53;21.40;;;19.80;;
17566;SDS011;8901;52.088;5.084;2023-07-02T11:48:25;21.45;;;19.80;;
17566;SDS011;8901;52.088;5.084;2023-07-02T11:50:56;21.80;;;19.95;;
17566;SDS011;8901;52.088;5.084;2023-07-02T11:53:26;21.70;;;19.80;;
17566;SDS011;8901;52.088;5.084;2023-07-02T11:55:57;21.80;;;19.98;;
17566;SDS011;8901;52.088;5.084;2023-07-02T11:58:25;21.42;;;19.73;;
17566;SDS011;8901;52.088;5.084;2023-07-02T12:00:54;21.90;;;19.92;;
17566;SDS011;8901;52.088;5.084;2023-07-02T12:03:22;22.05;;;20.02;;
17566;SDS011;8901;52.088;5.084;2023-07-02T12:05:52;22.02;;;20.40;;
17566;SDS011;8901;52.088;5.084;2023-07-02T12:20:10;21.88;;;20.33;;
17566;SDS011;8901;52.088;5.084;2023-07-02T12:22:40;22.60;;;21.05;;
17566;SDS011;8901;52.088;5.084;2023-07-02T12:25:14;21.25;;;19.55;;
17566;SDS011;8901;52.088;5.084;2023-07-02T12:27:45;20.85;;;19.15;;
17566;SDS011;8901;52.088;5.084;2023-07-02T12:30:24;20.80;;;19.38;;
17566;SDS011;8901;52.088;5.084;2023-07-02T12:36:15;21.13;;;19.58;;
17566;SDS011;8901;52.088;5.084;2023-07-02T12:41:49;22.73;;;20.98;;
17566;SDS011;8901;52.088;5.084;2023-07-02T12:44:25;21.95;;;20.35;;
17566;SDS011;8901;52.088;5.084;2023-07-02T13:01:26;21.52;;;19.52;;
17566;SDS011;8901;52.088;5.084;2023-07-02T13:06:58;23.00;;;21.15;;
17566;SDS011;8901;52.088;5.084;2023-07-02T13:27:20;20.50;;;19.10;;
17566;SDS011;8901;52.088;5.084;2023-07-02T13:32:52;21.27;;;19.80;;
17566;SDS011;8901;52.088;5.084;2023-07-02T13:44:20;21.85;;;20.30;;
17566;SDS011;8901;52.088;5.084;2023-07-02T13:49:21;22.77;;;20.95;;
17566;SDS011;8901;52.088;5.084;2023-07-02T13:51:50;21.83;;;20.27;;
17566;SDS011;8901;52.088;5.084;2023-07-02T13:57:33;22.08;;;20.48;;
17566;SDS011;8901;52.088;5.084;2023-07-02T14:00:05;22.38;;;20.70;;
17566;SDS011;8901;52.088;5.084;2023-07-02T14:05:53;22.50;;;20.70;;
17566;SDS011;8901;52.088;5.084;2023-07-02T14:11:40;22.20;;;20.05;;
17566;SDS011;8901;52.088;5.084;2023-07-02T14:14:08;21.73;;;20.20;;
17566;SDS011;8901;52.088;5.084;2023-07-02T14:29:30;21.67;;;19.92;;
17566;SDS011;8901;52.088;5.084;2023-07-02T14:35:02;21.15;;;19.65;;
17566;SDS011;8901;52.088;5.084;2023-07-02T14:37:37;22.52;;;20.77;;
17566;SDS011;8901;52.088;5.084;2023-07-02T14:43:10;20.70;;;19.27;;
17566;SDS011;8901;52.088;5.084;2023-07-02T14:48:43;21.98;;;20.30;;
17566;SDS011;8901;52.088;5.084;2023-07-02T14:57:12;21.27;;;19.67;;
17566;SDS011;8901;52.088;5.084;2023-07-02T15:02:46;19.95;;;18.55;;
17566;SDS011;8901;52.088;5.084;2023-07-02T15:08:16;19.83;;;18.40;;
17566;SDS011;8901;52.088;5.084;2023-07-02T15:11:00;21.42;;;19.63;;
17566;SDS011;8901;52.088;5.084;2023-07-02T15:13:36;20.95;;;19.30;;
17566;SDS011;8901;52.088;5.084;2023-07-02T15:16:06;22.02;;;20.33;;
17566;SDS011;8901;52.088;5.084;2023-07-02T15:21:37;19.83;;;18.42;;
17566;SDS011;8901;52.088;5.084;2023-07-02T15:27:09;19.75;;;18.30;;
17566;SDS011;8901;52.088;5.084;2023-07-02T15:32:40;20.70;;;19.23;;
17566;SDS011;8901;52.088;5.084;2023-07-02T15:35:19;22.02;;;19.88;;
17566;SDS011;8901;52.088;5.084;2023-07-02T15:37:52;21.05;;;19.35;;
17566;SDS011;8901;52.088;5.084;2023-07-02T15:43:26;20.30;;;18.80;;
17566;SDS011;8901;52.088;5.084;2023-07-02T15:51:54;21.02;;;19.50;;
17566;SDS011;8901;52.088;5.084;2023-07-02T16:03:36;21.23;;;19.38;;
17566;SDS011;8901;52.088;5.084;2023-07-02T16:06:21;21.42;;;19.83;;
17566;SDS011;8901;52.088;5.084;2023-07-02T16:08:56;20.65;;;19.05;;
17566;SDS011;8901;52.088;5.084;2023-07-02T16:17:31;21.63;;;20.05;;
17566;SDS011;8901;52.088;5.084;2023-07-02T16:41:09;20.92;;;19.23;;
17566;SDS011;8901;52.088;5.084;2023-07-02T16:43:54;20.45;;;18.85;;
17566;SDS011;8901;52.088;5.084;2023-07-02T16:46:22;21.40;;;19.80;;
17566;SDS011;8901;52.088;5.084;2023-07-02T16:48:50;24.10;;;21.90;;
17566;SDS011;8901;52.088;5.084;2023-07-02T16:51:17;26.13;;;23.60;;
17566;SDS011;8901;52.088;5.084;2023-07-02T16:53:44;30.90;;;27.85;;
17566;SDS011;8901;52.088;5.084;2023-07-02T16:56:14;33.22;;;29.92;;
17566;SDS011;8901;52.088;5.084;2023-07-02T16:58:49;26.48;;;24.00;;
17566;SDS011;8901;52.088;5.084;2023-07-02T17:01:25;23.15;;;21.02;;
17566;SDS011;8901;52.088;5.084;2023-07-02T17:04:05;23.27;;;21.35;;
17566;SDS011;8901;52.088;5.084;2023-07-02T17:15:33;27.10;;;24.55;;
17566;SDS011;8901;52.088;5.084;2023-07-02T17:18:07;22.92;;;20.95;;
17566;SDS011;8901;52.088;5.084;2023-07-02T17:20:37;22.33;;;20.60;;
17566;SDS011;8901;52.088;5.084;2023-07-02T17:26:10;22.05;;;20.27;;
17566;SDS011;8901;52.088;5.084;2023-07-02T17:46:07;20.30;;;18.50;;
17566;SDS011;8901;52.088;5.084;2023-07-02T17:54:32;23.95;;;21.40;;
17566;SDS011;8901;52.088;5.084;2023-07-02T17:57:12;20.85;;;18.75;;
17566;SDS011;8901;52.088;5.084;2023-07-02T17:59:44;20.60;;;18.52;;
17566;SDS011;8901;52.088;5.084;2023-07-02T18:07:48;20.73;;;18.83;;
17566;SDS011;8901;52.088;5.084;2023-07-02T18:10:15;21.67;;;19.75;;
17566;SDS011;8901;52.088;5.084;2023-07-02T18:12:45;22.13;;;20.13;;
17566;SDS011;8901;52.088;5.084;2023-07-02T18:15:12;21.25;;;19.13;;
17566;SDS011;8901;52.088;5.084;2023-07-02T18:20:31;21.05;;;19.05;;
17566;SDS011;8901;52.088;5.084;2023-07-02T18:23:00;21.55;;;19.48;;
17566;SDS011;8901;52.088;5.084;2023-07-02T18:25:27;20.33;;;18.55;;
17566;SDS011;8901;52.088;5.084;2023-07-02T18:28:01;21.08;;;18.95;;
17566;SDS011;8901;52.088;5.084;2023-07-02T18:30:28;21.10;;;19.15;;
17566;SDS011;8901;52.088;5.084;2023-07-02T18:32:57;20.58;;;18.80;;
17566;SDS011;8901;52.088;5.084;2023-07-02T18:35:24;20.42;;;18.25;;
17566;SDS011;8901;52.088;5.084;2023-07-02T18:37:51;19.98;;;18.23;;
17566;SDS011;8901;52.088;5.084;2023-07-02T18:43:14;20.88;;;18.73;;
17566;SDS011;8901;52.088;5.084;2023-07-02T18:45:41;19.85;;;18.15;;
17566;SDS011;8901;52.088;5.084;2023-07-02T18:48:08;20.20;;;18.05;;
17566;SDS011;8901;52.088;5.084;2023-07-02T18:50:36;21.15;;;19.00;;
17566;SDS011;8901;52.088;5.084;2023-07-02T18:53:04;21.55;;;19.38;;
17566;SDS011;8901;52.088;5.084;2023-07-02T18:58:36;19.38;;;17.17;;
17566;SDS011;8901;52.088;5.084;2023-07-02T19:01:06;19.83;;;18.13;;
17566;SDS011;8901;52.088;5.084;2023-07-02T19:03:33;18.77;;;17.08;;
17566;SDS011;8901;52.088;5.084;2023-07-02T19:08:59;18.83;;;16.85;;
17566;SDS011;8901;52.088;5.084;2023-07-02T19:11:26;19.42;;;17.52;;
17566;SDS011;8901;52.088;5.084;2023-07-02T19:13:55;18.83;;;17.02;;
17566;SDS011;8901;52.088;5.084;2023-07-02T19:16:22;20.23;;;18.25;;